Time;durP1;ratioP1;P1;durP2;ratioP2;P2;SDS_P1;SDS_P2;PMS_P1;PMS_P2;Temp;Humidity;BMP_temperature;BMP_pressure;BME280_temperature;BME280_humidity;BME280_pressure;Samples;Min_cycle;Max_cycle;Signal;HPM_P1;HPM_P2
2022/09/24 00:00:52;;;;;;;11.80;6.20;;;22.00;71.20;;;;;;217177;1299;22913;-49
2022/09/24 00:06:05;;;;;;;11.10;6.10;;;21.90;71.00;;;;;;218186;1296;24198;-47
2022/09/24 00:11:28;;;;;;;9.60;5.70;;;21.90;70.90;;;;;;214856;1296;24723;-48
2022/09/24 00:16:33;;;;;;;9.60;5.90;;;21.90;70.90;;;;;;214811;1299;25450;-48
2022/09/24 00:21:41;;;;;;;10.10;5.80;;;21.90;71.10;;;;;;214765;1296;25288;-46
2022/09/24 00:26:50;;;;;;;10.20;6.00;;;21.90;70.80;;;;;;214713;1299;24338;-45
2022/09/24 00:31:56;;;;;;;10.30;6.10;;;21.90;70.90;;;;;;218233;1300;22606;-46
2022/09/24 00:37:00;;;;;;;8.20;5.00;;;21.80;71.00;;;;;;215060;1296;23190;-46
2022/09/24 00:42:06;;;;;;;10.80;5.60;;;21.80;71.10;;;;;;215032;1299;24571;-44
2022/09/24 00:47:11;;;;;;;8.90;6.10;;;21.80;71.20;;;;;;215212;1296;22510;-46
2022/09/24 00:52:17;;;;;;;8.60;5.40;;;21.70;71.10;;;;;;215218;1296;24250;-46
2022/09/24 00:57:23;;;;;;;8.40;5.30;;;21.70;71.20;;;;;;215062;1297;22568;-45
2022/09/24 01:02:26;;;;;;;10.40;5.60;;;21.60;71.10;;;;;;215167;1296;22658;-47
2022/09/24 01:07:30;;;;;;;8.90;5.70;;;21.60;71.40;;;;;;215351;1296;22615;-46
2022/09/24 01:12:39;;;;;;;8.10;5.20;;;21.60;71.20;;;;;;215077;1300;22596;-45
2022/09/24 01:17:55;;;;;;;8.70;5.70;;;21.60;71.30;;;;;;214598;1299;172441;-45
2022/09/24 01:23:42;;;;;;;9.00;5.30;;;21.60;71.20;;;;;;214764;1297;24301;-45
2022/09/24 01:29:02;;;;;;;9.20;5.20;;;21.50;71.40;;;;;;214892;1299;24242;-47
2022/09/24 01:34:08;;;;;;;9.20;5.60;;;21.50;71.20;;;;;;215079;1299;22580;-45
2022/09/24 01:39:15;;;;;;;9.10;5.30;;;21.50;71.10;;;;;;215046;1299;22589;-46
2022/09/24 01:44:19;;;;;;;7.60;5.40;;;21.50;71.20;;;;;;215043;1297;22697;-45
2022/09/24 01:49:23;;;;;;;8.00;4.90;;;21.50;71.40;;;;;;215160;1297;22573;-45
2022/09/24 01:54:33;;;;;;;7.80;5.30;;;21.40;71.10;;;;;;214868;1299;22611;-47
2022/09/24 01:59:43;;;;;;;8.10;5.30;;;21.50;71.10;;;;;;214819;1296;22589;-48
2022/09/24 02:04:57;;;;;;;6.70;4.90;;;21.40;71.00;;;;;;214925;1299;22567;-46
2022/09/24 02:10:01;;;;;;;8.10;4.80;;;21.40;71.10;;;;;;215101;1299;25555;-46
2022/09/24 02:15:14;;;;;;;8.30;5.40;;;21.40;71.00;;;;;;215035;1297;23348;-49
2022/09/24 02:20:29;;;;;;;6.80;4.50;;;21.40;71.10;;;;;;214922;1297;25575;-48
2022/09/24 02:25:39;;;;;;;6.70;4.50;;;21.40;71.00;;;;;;215000;1299;24484;-47
2022/09/24 02:30:50;;;;;;;7.80;4.90;;;21.30;71.00;;;;;;215104;1299;23984;-46
2022/09/24 02:35:54;;;;;;;8.20;4.70;;;21.40;71.10;;;;;;215017;1297;22580;-47
2022/09/24 02:40:58;;;;;;;6.90;4.60;;;21.50;70.30;;;;;;215160;1296;24249;-46
2022/09/24 02:46:02;;;;;;;6.40;4.30;;;21.50;70.20;;;;;;215023;1299;22526;-45
2022/09/24 02:51:05;;;;;;;8.60;4.80;;;21.60;70.10;;;;;;214936;1296;23067;-45
2022/09/24 02:56:10;;;;;;;6.10;4.30;;;21.60;70.00;;;;;;214912;1299;25211;-46
2022/09/24 03:01:14;;;;;;;9.90;4.60;;;21.60;70.30;;;;;;215003;1297;25511;-45
2022/09/24 03:06:18;;;;;;;6.30;4.00;;;21.60;69.80;;;;;;214921;1299;24819;-49
2022/09/24 03:11:22;;;;;;;5.80;4.00;;;21.60;69.70;;;;;;215307;1299;24962;-45
2022/09/24 03:16:26;;;;;;;7.40;4.90;;;21.60;69.60;;;;;;215131;1300;22682;-48
2022/09/24 03:21:30;;;;;;;6.00;4.10;;;21.60;69.60;;;;;;214830;1297;24244;-46
2022/09/24 03:26:34;;;;;;;7.60;4.60;;;21.60;69.40;;;;;;215291;1300;24341;-44
2022/09/24 03:31:38;;;;;;;6.60;4.70;;;21.60;69.30;;;;;;215100;1296;25354;-46
2022/09/24 03:36:42;;;;;;;6.60;4.50;;;21.70;69.60;;;;;;214901;1295;24265;-46
2022/09/24 03:41:45;;;;;;;7.60;4.70;;;21.70;69.20;;;;;;215393;1299;22611;-48
2022/09/24 03:46:49;;;;;;;6.80;4.40;;;21.70;69.10;;;;;;214636;1299;24252;-48
2022/09/24 03:51:53;;;;;;;6.70;4.00;;;21.60;69.00;;;;;;214902;1299;24259;-49
2022/09/24 03:56:56;;;;;;;6.60;4.60;;;21.70;68.90;;;;;;214981;1297;25444;-46
2022/09/24 04:02:00;;;;;;;6.20;4.00;;;21.70;69.20;;;;;;215001;1300;24259;-47
2022/09/24 04:07:05;;;;;;;11.00;4.70;;;21.70;68.70;;;;;;215004;1297;22596;-47
2022/09/24 04:12:08;;;;;;;8.70;4.50;;;21.70;68.60;;;;;;214988;1299;22579;-45
2022/09/24 04:17:13;;;;;;;6.20;4.00;;;21.70;68.60;;;;;;214835;1300;22623;-47
2022/09/24 04:22:17;;;;;;;6.70;4.30;;;21.70;68.40;;;;;;214813;1299;22618;-45
2022/09/24 04:27:21;;;;;;;6.90;4.50;;;21.80;68.50;;;;;;215128;1299;24259;-47
2022/09/24 04:32:25;;;;;;;6.80;4.30;;;21.80;68.50;;;;;;215105;1297;25283;-45
2022/09/24 04:37:29;;;;;;;8.30;4.20;;;21.80;68.40;;;;;;214825;1299;24444;-45
2022/09/24 04:42:33;;;;;;;7.20;4.40;;;21.80;68.30;;;;;;214925;1299;25401;-48
2022/09/24 04:47:39;;;;;;;7.10;4.30;;;21.80;68.60;;;;;;214910;1299;26539;-45
2022/09/24 04:52:43;;;;;;;8.10;4.70;;;21.70;68.80;;;;;;215049;1299;24938;-47
2022/09/24 04:57:50;;;;;;;9.10;4.40;;;21.70;68.20;;;;;;215125;1297;25280;-49
2022/09/24 05:02:58;;;;;;;7.70;4.10;;;21.70;68.20;;;;;;215249;1302;22761;-47
2022/09/24 05:08:03;;;;;;;6.10;3.90;;;21.80;68.30;;;;;;215251;1296;22601;-48
2022/09/24 05:13:07;;;;;;;7.60;4.60;;;21.70;68.10;;;;;;215001;1296;24455;-48
2022/09/24 05:18:11;;;;;;;8.20;4.70;;;21.80;68.00;;;;;;215356;1297;24338;-46
2022/09/24 05:23:15;;;;;;;9.20;4.30;;;21.80;68.00;;;;;;215257;1297;22582;-45
2022/09/24 05:28:20;;;;;;;5.80;3.80;;;21.80;67.90;;;;;;215057;1297;22566;-47
2022/09/24 05:33:24;;;;;;;6.60;3.90;;;21.80;67.90;;;;;;215195;1300;25280;-46
2022/09/24 05:38:28;;;;;;;6.90;3.90;;;21.70;67.90;;;;;;214825;1299;22575;-47
2022/09/24 05:43:40;;;;;;;6.70;3.70;;;21.80;68.00;;;;;;215013;1300;25234;-46
2022/09/24 05:48:43;;;;;;;10.10;4.10;;;21.80;68.00;;;;;;215074;1299;25287;-45
2022/09/24 05:53:50;;;;;;;8.20;4.40;;;21.80;68.20;;;;;;214793;1299;25373;-46
2022/09/24 05:58:54;;;;;;;11.50;3.80;;;21.90;67.80;;;;;;214999;1297;22728;-47
2022/09/24 06:03:58;;;;;;;10.30;4.80;;;21.80;67.80;;;;;;215387;1297;22573;-49
2022/09/24 06:09:08;;;;;;;7.40;3.90;;;21.90;67.70;;;;;;214920;1297;22589;-46
2022/09/24 06:14:13;;;;;;;8.90;4.20;;;22.00;67.50;;;;;;214959;1297;25377;-48
2022/09/24 06:19:17;;;;;;;13.60;4.60;;;22.00;68.00;;;;;;215043;1297;22733;-45
2022/09/24 06:24:28;;;;;;;9.00;4.10;;;21.90;67.60;;;;;;214947;1296;22586;-47
2022/09/24 06:29:34;;;;;;;10.60;4.00;;;21.90;67.90;;;;;;215001;1300;22625;-44
2022/09/24 06:34:38;;;;;;;11.30;4.50;;;21.90;67.70;;;;;;214838;1299;22649;-48
2022/09/24 06:39:43;;;;;;;6.10;4.30;;;21.80;67.50;;;;;;215028;1299;25340;-44
2022/09/24 06:44:50;;;;;;;6.80;4.00;;;21.90;68.10;;;;;;215081;1297;23268;-49
2022/09/24 06:50:00;;;;;;;10.20;3.80;;;21.90;67.70;;;;;;215156;1296;22715;-46
2022/09/24 06:55:08;;;;;;;12.30;4.00;;;21.90;67.50;;;;;;215223;1296;24118;-45
2022/09/24 07:00:32;;;;;;;19.60;4.40;;;22.00;68.00;;;;;;214911;1297;23822;-46
2022/09/24 07:05:50;;;;;;;7.50;4.40;;;21.90;67.50;;;;;;214970;1296;25592;-47
2022/09/24 07:10:54;;;;;;;8.70;4.20;;;22.00;67.80;;;;;;214771;1297;24329;-51
2022/09/24 07:16:00;;;;;;;6.90;4.10;;;22.00;67.40;;;;;;214849;1296;25302;-45
2022/09/24 07:21:16;;;;;;;8.50;4.20;;;22.10;67.40;;;;;;214772;1296;22756;-46
2022/09/24 07:26:28;;;;;;;11.00;4.70;;;22.10;67.30;;;;;;214694;1297;22628;-45
2022/09/24 07:31:41;;;;;;;7.50;4.50;;;22.10;67.30;;;;;;214883;1297;22578;-49
2022/09/24 07:36:55;;;;;;;12.70;5.40;;;22.10;67.10;;;;;;214604;1299;25414;-45
2022/09/24 07:42:05;;;;;;;12.20;6.00;;;22.20;67.50;;;;;;214744;1296;22685;-46
2022/09/24 07:47:09;;;;;;;12.20;3.90;;;22.20;67.50;;;;;;214609;1297;24304;-45
2022/09/24 07:52:18;;;;;;;9.30;4.60;;;22.20;67.20;;;;;;214517;1299;22684;-46
2022/09/24 07:57:26;;;;;;;10.90;4.50;;;22.20;67.40;;;;;;214776;1297;22621;-45
2022/09/24 08:02:30;;;;;;;9.30;4.80;;;22.20;67.00;;;;;;214704;1296;22692;-47
2022/09/24 08:07:34;;;;;;;8.20;4.00;;;22.20;67.20;;;;;;214669;1296;22608;-46
2022/09/24 08:12:41;;;;;;;8.50;4.40;;;22.30;67.10;;;;;;214734;1297;26643;-50
2022/09/24 08:17:45;;;;;;;9.80;4.00;;;22.30;66.40;;;;;;214823;1297;22613;-43
2022/09/24 08:22:53;;;;;;;7.60;4.00;;;22.30;66.40;;;;;;214890;1297;23054;-48
2022/09/24 08:28:05;;;;;;;9.60;4.30;;;22.40;66.60;;;;;;214938;1297;22577;-45
2022/09/24 08:33:14;;;;;;;9.40;3.70;;;22.40;67.00;;;;;;215002;1296;22626;-45
2022/09/24 08:38:19;;;;;;;8.90;3.70;;;22.50;67.50;;;;;;214805;1299;24323;-47
2022/09/24 08:43:33;;;;;;;12.10;4.20;;;22.50;67.40;;;;;;215203;1296;23226;-46
2022/09/24 08:48:41;;;;;;;9.80;3.30;;;22.60;67.50;;;;;;214925;1296;25293;-48
2022/09/24 08:54:16;;;;;;;11.70;3.80;;;22.60;68.30;;;;;;215088;1297;24350;-45
2022/09/24 08:59:32;;;;;;;11.50;4.30;;;22.60;67.60;;;;;;215047;1299;24039;-48
2022/09/24 09:05:01;;;;;;;7.80;4.50;;;22.70;68.00;;;;;;214983;1299;24530;-48
2022/09/24 09:10:27;;;;;;;12.50;4.50;;;22.70;67.80;;;;;;215120;1296;24304;-47
2022/09/24 09:15:49;;;;;;;13.80;4.40;;;22.70;67.60;;;;;;215056;1296;22890;-51
2022/09/24 09:21:02;;;;;;;12.00;4.50;;;22.70;67.40;;;;;;215064;1296;24282;-50
2022/09/24 09:26:10;;;;;;;8.80;3.60;;;22.80;66.90;;;;;;214963;1297;22615;-49
2022/09/24 09:31:45;;;;;;;8.70;3.80;;;22.90;67.60;;;;;;215009;1297;24352;-48
2022/09/24 09:37:30;;;;;;;8.20;4.10;;;22.80;66.90;;;;;;214830;1297;22621;-46
2022/09/24 09:42:53;;;;;;;10.80;3.70;;;22.80;67.50;;;;;;215153;1297;22580;-46
2022/09/24 09:48:02;;;;;;;21.10;4.00;;;22.80;67.50;;;;;;215022;1297;24332;-46
2022/09/24 09:53:26;;;;;;;17.30;4.00;;;22.80;68.20;;;;;;215159;1299;22732;-49
2022/09/24 09:58:39;;;;;;;37.90;5.20;;;22.80;67.90;;;;;;215067;1297;25623;-47
2022/09/24 10:03:45;;;;;;;28.80;4.90;;;22.80;68.60;;;;;;214999;1298;24657;-49
2022/09/24 10:08:50;;;;;;;24.30;5.30;;;22.80;68.50;;;;;;214873;1297;24450;-50
2022/09/24 10:14:02;;;;;;;20.70;4.30;;;22.90;68.60;;;;;;214899;1296;24475;-46
2022/09/24 10:19:24;;;;;;;21.00;5.10;;;22.90;68.10;;;;;;214855;1297;22803;-52
2022/09/24 10:34:59;;;;;;;12.10;4.00;;;22.70;67.70;;;;;;214750;1296;543281;-50
2022/09/24 10:40:21;;;;;;;14.00;4.30;;;22.70;68.20;;;;;;219473;1274;24377;-52
2022/09/24 10:45:42;;;;;;;22.20;5.30;;;22.90;68.90;;;;;;216639;1275;3195247;-49
2022/09/24 10:50:54;;;;;;;13.50;4.40;;;22.90;68.50;;;;;;219742;1274;22651;-54
2022/09/24 10:56:07;;;;;;;9.70;3.60;;;22.90;67.90;;;;;;219100;1274;22617;-50
2022/09/24 11:01:19;;;;;;;15.20;3.40;;;23.00;68.20;;;;;;219227;1274;22549;-52
2022/09/24 11:06:42;;;;;;;15.00;4.20;;;23.00;68.00;;;;;;219477;1274;24420;-47
2022/09/24 11:11:55;;;;;;;12.00;3.80;;;23.10;67.20;;;;;;219363;1274;25462;-53
2022/09/24 11:17:17;;;;;;;7.40;3.30;;;23.10;67.60;;;;;;219554;1274;23947;-51
2022/09/24 11:22:40;;;;;;;14.70;3.50;;;23.20;67.80;;;;;;219400;1274;24265;-54
2022/09/24 11:28:01;;;;;;;8.60;3.30;;;23.20;67.20;;;;;;219229;1275;22607;-53
2022/09/24 11:33:18;;;;;;;;;;;23.20;67.30;;;;;;219051;1275;22561;-56
2022/09/24 11:39:07;;;;;;;12.20;3.60;;;23.20;67.10;;;;;;219254;1274;25377;-50
2022/09/24 11:44:17;;;;;;;8.90;3.50;;;23.20;66.90;;;;;;218440;1275;22786;-51
2022/09/24 11:50:14;;;;;;;12.20;3.80;;;23.20;66.70;;;;;;219405;1274;22559;-54
2022/09/24 11:55:33;;;;;;;12.50;3.20;;;23.20;64.10;;;;;;219327;1274;25378;-51
2022/09/24 12:00:44;;;;;;;15.30;4.80;;;23.40;63.90;;;;;;219186;1274;25144;-55
2022/09/24 12:06:04;;;;;;;13.10;3.90;;;23.40;63.70;;;;;;219613;1274;24306;-54
2022/09/24 12:11:33;;;;;;;13.40;5.00;;;23.50;64.60;;;;;;219117;1275;24380;-55
2022/09/24 12:16:39;;;;;;;16.30;3.20;;;23.40;62.70;;;;;;219259;1275;22592;-57
2022/09/24 12:21:46;;;;;;;9.90;2.90;;;23.40;60.80;;;;;;219308;1274;24228;-52
2022/09/24 12:26:59;;;;;;;15.20;3.80;;;23.40;60.10;;;;;;219251;1274;22562;-58
2022/09/24 12:37:41;;;;;;;16.30;3.70;;;23.40;60.10;;;;;;219423;1274;24231;-56
2022/09/24 12:43:00;;;;;;;11.40;4.00;;;23.30;59.30;;;;;;219363;1274;22544;-53
2022/09/24 12:48:10;;;;;;;14.70;3.70;;;23.30;60.10;;;;;;219637;1274;24008;-54
2022/09/24 12:53:24;;;;;;;9.50;3.60;;;23.30;60.60;;;;;;219206;1276;22545;-52
2022/09/24 12:58:44;;;;;;;7.00;3.20;;;23.40;60.80;;;;;;219429;1274;23943;-53
2022/09/24 13:04:12;;;;;;;8.50;3.20;;;23.30;61.30;;;;;;219427;1274;22762;-54
2022/09/24 13:09:35;;;;;;;6.80;3.00;;;23.40;61.10;;;;;;219443;1274;23145;-56
2022/09/24 13:14:42;;;;;;;9.50;3.50;;;23.40;61.30;;;;;;219456;1274;23048;-54
2022/09/24 13:19:48;;;;;;;8.40;3.70;;;23.40;61.40;;;;;;220558;1267;24229;-56
2022/09/24 13:25:07;;;;;;;8.60;3.30;;;23.40;61.40;;;;;;220617;1267;23432;-55
2022/09/24 13:30:34;;;;;;;6.20;2.90;;;23.40;61.40;;;;;;220572;1267;23950;-55
2022/09/24 13:35:44;;;;;;;8.90;3.30;;;23.40;61.70;;;;;;220617;1267;24227;-52
2022/09/24 13:41:00;;;;;;;4.40;2.70;;;23.30;61.70;;;;;;220712;1267;22552;-53
2022/09/24 13:46:12;;;;;;;6.40;2.90;;;23.30;61.50;;;;;;220727;1267;24761;-54
2022/09/24 13:51:26;;;;;;;5.90;3.00;;;23.40;61.40;;;;;;220516;1267;22546;-53
2022/09/24 13:56:31;;;;;;;5.90;3.30;;;23.40;61.50;;;;;;220564;1265;24412;-55
2022/09/24 14:02:32;;;;;;;7.80;2.80;;;23.40;61.50;;;;;;220804;1268;24215;-54
2022/09/24 14:08:05;;;;;;;8.20;2.90;;;23.30;61.70;;;;;;220613;1267;22682;-50
2022/09/24 14:13:16;;;;;;;5.70;2.80;;;23.30;61.60;;;;;;220342;1267;25428;-55
2022/09/24 14:18:22;;;;;;;10.90;3.30;;;23.20;61.80;;;;;;220590;1267;22540;-57
2022/09/24 14:24:12;;;;;;;5.30;2.60;;;23.20;61.70;;;;;;220536;1267;22554;-54
2022/09/24 14:29:37;;;;;;;6.90;2.70;;;23.20;61.80;;;;;;220322;1267;25437;-53
2022/09/24 14:34:52;;;;;;;6.80;3.60;;;23.20;62.20;;;;;;220563;1267;24209;-54
2022/09/24 14:40:24;;;;;;;4.50;2.70;;;23.20;61.80;;;;;;220611;1267;25619;-51
2022/09/24 14:46:22;;;;;;;5.70;2.80;;;23.20;62.50;;;;;;219980;1270;22598;-53
2022/09/24 14:51:56;;;;;;;4.30;2.80;;;23.20;62.50;;;;;;219465;1270;26528;-54
2022/09/24 14:57:15;;;;;;;5.40;2.90;;;23.20;62.90;;;;;;219965;1271;24225;-53
2022/09/24 15:02:35;;;;;;;4.30;3.10;;;23.10;62.80;;;;;;219806;1270;24338;-54
2022/09/24 15:07:53;;;;;;;4.60;2.90;;;23.00;63.00;;;;;;219856;1271;26817;-54
2022/09/24 15:12:59;;;;;;;4.50;2.90;;;23.00;63.20;;;;;;219829;1270;24264;-51
2022/09/24 15:18:21;;;;;;;;;;;;;;;;;;;;;
2022/09/24 15:23:39;;;;;;;5.00;2.70;;;23.00;63.80;;;;;;220224;1267;24218;-53
2022/09/24 15:28:49;;;;;;;3.70;2.60;;;23.00;64.20;;;;;;220568;1267;22623;-54
2022/09/24 15:34:09;;;;;;;4.50;3.00;;;23.10;64.00;;;;;;220131;1267;25521;-52
2022/09/24 15:40:21;;;;;;;5.60;3.00;;;23.00;64.00;;;;;;220094;1267;22859;-51
2022/09/24 15:45:34;;;;;;;4.00;2.60;;;23.00;64.20;;;;;;220385;1267;24205;-51
2022/09/24 15:50:57;;;;;;;4.20;2.90;;;23.00;64.20;;;;;;220502;1267;24782;-51
2022/09/24 15:56:13;;;;;;;5.00;3.10;;;23.00;64.40;;;;;;220564;1267;24657;-53
2022/09/24 16:01:23;;;;;;;5.00;2.90;;;23.00;64.30;;;;;;220682;1266;23051;-56
2022/09/24 16:06:39;;;;;;;4.10;2.80;;;23.00;64.50;;;;;;220427;1268;24216;-54
2022/09/24 16:11:50;;;;;;;3.80;2.70;;;23.00;64.30;;;;;;220431;1267;22828;-53
2022/09/24 16:17:02;;;;;;;5.40;2.70;;;23.00;64.10;;;;;;220493;1267;24250;-53
2022/09/24 16:22:09;;;;;;;4.60;2.90;;;23.00;64.00;;;;;;220472;1267;22615;-50
2022/09/24 16:27:17;;;;;;;5.80;3.20;;;23.00;63.70;;;;;;220640;1268;22575;-52
2022/09/24 16:32:21;;;;;;;8.30;4.30;;;23.00;63.50;;;;;;220772;1267;24295;-53
2022/09/24 16:37:27;;;;;;;5.30;3.50;;;22.90;63.30;;;;;;220661;1267;22557;-53
2022/09/24 16:42:33;;;;;;;8.30;4.00;;;22.90;63.10;;;;;;220652;1267;22564;-49
2022/09/24 16:47:36;;;;;;;7.70;3.80;;;22.80;63.20;;;;;;220672;1270;22540;-54
2022/09/24 16:52:43;;;;;;;7.20;3.90;;;22.90;62.80;;;;;;220635;1267;25587;-52
2022/09/24 16:57:47;;;;;;;8.40;3.90;;;22.80;63.10;;;;;;220465;1267;22551;-51
2022/09/24 17:02:51;;;;;;;10.60;3.70;;;22.80;62.60;;;;;;220411;1267;22621;-48
2022/09/24 17:07:55;;;;;;;11.10;3.40;;;22.90;63.20;;;;;;220681;1267;23781;-48
2022/09/24 17:13:00;;;;;;;10.10;3.40;;;22.90;63.20;;;;;;220335;1267;25399;-52
2022/09/24 17:18:11;;;;;;;7.30;3.60;;;22.90;62.80;;;;;;220519;1267;22675;-52
2022/09/24 17:23:15;;;;;;;16.40;4.30;;;22.90;63.40;;;;;;220592;1268;25236;-48
2022/09/24 17:28:20;;;;;;;8.40;3.80;;;22.90;63.60;;;;;;220421;1267;24209;-52
2022/09/24 17:33:24;;;;;;;8.70;3.60;;;22.90;63.60;;;;;;220629;1267;25449;-50
2022/09/24 17:38:48;;;;;;;11.00;4.30;;;22.80;63.70;;;;;;220197;1270;24224;-54
2022/09/24 17:44:01;;;;;;;9.80;3.80;;;22.80;63.80;;;;;;220585;1268;22824;-49
2022/09/24 17:49:07;;;;;;;7.60;3.60;;;22.90;64.00;;;;;;220658;1267;25452;-49
2022/09/24 17:54:27;;;;;;;10.70;4.60;;;23.00;64.00;;;;;;220587;1268;22548;-46
2022/09/24 17:59:31;;;;;;;14.40;4.80;;;23.00;64.00;;;;;;220451;1268;22579;-50
2022/09/24 18:04:41;;;;;;;16.00;5.40;;;23.00;64.40;;;;;;220484;1268;22553;-49
2022/09/24 18:09:45;;;;;;;14.20;6.20;;;23.00;64.30;;;;;;220266;1268;24349;-48
2022/09/24 18:14:50;;;;;;;22.20;7.80;;;23.00;64.50;;;;;;220310;1267;22567;-49
2022/09/24 18:19:54;;;;;;;12.90;6.70;;;23.00;64.80;;;;;;220291;1267;25443;-49
2022/09/24 18:25:00;;;;;;;20.30;8.70;;;23.00;64.00;;;;;;220704;1267;24392;-48
2022/09/24 18:30:10;;;;;;;14.80;8.00;;;22.90;64.10;;;;;;220412;1267;22532;-47
2022/09/24 18:35:29;;;;;;;15.20;7.50;;;22.90;64.00;;;;;;220011;1267;22963;-52
2022/09/24 18:40:37;;;;;;;18.10;8.20;;;22.90;64.40;;;;;;220265;1267;25447;-48
2022/09/24 18:45:41;;;;;;;18.10;8.20;;;22.90;64.70;;;;;;219983;1267;23205;-46
2022/09/24 18:50:45;;;;;;;18.30;9.60;;;22.90;64.80;;;;;;220633;1268;22535;-47
2022/09/24 18:55:55;;;;;;;14.10;8.50;;;23.00;65.90;;;;;;221957;1267;23245;-49
2022/09/24 19:01:06;;;;;;;14.70;8.90;;;22.90;67.50;;;;;;220461;1268;24277;-50
2022/09/24 19:06:11;;;;;;;20.40;11.30;;;22.90;67.40;;;;;;220573;1267;23112;-54
2022/09/24 19:11:17;;;;;;;20.30;10.60;;;22.90;68.40;;;;;;220431;1267;22748;-46
2022/09/24 19:16:22;;;;;;;19.40;10.50;;;22.90;68.40;;;;;;220523;1267;23923;-53
2022/09/24 19:21:27;;;;;;;26.50;11.90;;;22.90;68.50;;;;;;220447;1267;24287;-53
2022/09/24 19:26:40;;;;;;;22.70;11.30;;;22.80;68.10;;;;;;220816;1268;22538;-47
2022/09/24 19:31:50;;;;;;;24.80;11.90;;;22.70;68.00;;;;;;220250;1270;22773;-47
2022/09/24 19:37:02;;;;;;;26.80;13.40;;;22.80;67.80;;;;;;220362;1268;26593;-49
2022/09/24 19:42:10;;;;;;;20.70;12.40;;;22.70;67.30;;;;;;220105;1268;22722;-45
2022/09/24 19:47:14;;;;;;;24.70;13.00;;;22.80;68.20;;;;;;220268;1267;22554;-49
2022/09/24 19:52:31;;;;;;;21.20;13.30;;;22.70;67.70;;;;;;220572;1267;22550;-48
2022/09/24 19:58:04;;;;;;;24.80;15.20;;;22.70;67.70;;;;;;220201;1270;22650;-50
2022/09/24 20:03:24;;;;;;;23.70;13.70;;;22.70;67.70;;;;;;220190;1268;24216;-50
2022/09/24 20:09:13;;;;;;;26.50;13.40;;;22.70;70.10;;;;;;219876;1271;25329;-49
2022/09/24 20:14:34;;;;;;;26.20;13.40;;;22.80;68.90;;;;;;219869;1271;22709;-50
2022/09/24 20:19:42;;;;;;;27.40;14.90;;;22.70;69.30;;;;;;219899;1272;22736;-53
2022/09/24 20:24:47;;;;;;;46.20;14.40;;;22.70;68.60;;;;;;219969;1271;24139;-52
2022/09/24 20:29:54;;;;;;;30.90;14.10;;;22.60;71.30;;;;;;220006;1271;22695;-52
2022/09/24 20:35:00;;;;;;;25.50;14.00;;;22.60;69.80;;;;;;220025;1271;22545;-49
2022/09/24 20:40:27;;;;;;;25.60;13.60;;;22.60;71.00;;;;;;220116;1271;22753;-53
2022/09/24 20:45:39;;;;;;;23.30;14.10;;;22.70;71.80;;;;;;219796;1271;22847;-49
2022/09/24 20:50:46;;;;;;;18.80;12.50;;;22.60;70.90;;;;;;220332;1267;24250;-48
2022/09/24 20:55:52;;;;;;;31.10;13.60;;;22.60;70.40;;;;;;220210;1269;22715;-52
2022/09/24 21:01:02;;;;;;;21.90;12.60;;;22.60;71.00;;;;;;220005;1269;25225;-52
2022/09/24 21:06:10;;;;;;;23.70;12.80;;;22.50;71.40;;;;;;220078;1268;22567;-47
2022/09/24 21:11:20;;;;;;;23.90;12.80;;;22.50;70.90;;;;;;219974;1270;22551;-50
2022/09/24 21:16:27;;;;;;;24.30;13.90;;;22.50;71.20;;;;;;220096;1271;22607;-51
2022/09/24 21:21:37;;;;;;;23.00;13.50;;;22.50;72.10;;;;;;220277;1268;22547;-45
2022/09/24 21:26:44;;;;;;;24.00;12.30;;;22.50;73.30;;;;;;219974;1268;25359;-49
2022/09/24 21:31:51;;;;;;;20.60;11.90;;;22.60;73.00;;;;;;220665;1268;24272;-48
2022/09/24 21:36:55;;;;;;;19.60;12.30;;;22.50;72.80;;;;;;220461;1268;22756;-47
2022/09/24 21:42:00;;;;;;;21.40;11.90;;;22.50;72.60;;;;;;220387;1269;22618;-48
2022/09/24 21:47:04;;;;;;;23.20;11.20;;;22.50;72.60;;;;;;220281;1268;22515;-47
2022/09/24 21:52:08;;;;;;;18.70;10.80;;;22.40;72.30;;;;;;220183;1268;23950;-47
2022/09/24 21:57:13;;;;;;;20.30;11.80;;;22.40;72.50;;;;;;220249;1268;22535;-50
2022/09/24 22:02:17;;;;;;;15.70;10.60;;;22.40;72.30;;;;;;220099;1268;22542;-51
2022/09/24 22:07:22;;;;;;;19.00;11.20;;;22.40;72.00;;;;;;220160;1268;23927;-50
2022/09/24 22:12:26;;;;;;;17.90;11.00;;;22.40;72.00;;;;;;220059;1268;24364;-49
2022/09/24 22:17:30;;;;;;;19.30;11.30;;;22.40;71.70;;;;;;220012;1269;22537;-51
2022/09/24 22:22:34;;;;;;;17.90;10.80;;;22.40;71.80;;;;;;220354;1268;22559;-50
2022/09/24 22:27:38;;;;;;;18.30;10.30;;;22.40;71.60;;;;;;220272;1268;23213;-49
2022/09/24 22:32:41;;;;;;;18.70;11.20;;;22.40;71.50;;;;;;220153;1268;23888;-49
2022/09/24 22:37:46;;;;;;;17.10;10.30;;;22.40;71.60;;;;;;219841;1268;25448;-46
2022/09/24 22:42:50;;;;;;;15.30;9.90;;;22.40;71.40;;;;;;220291;1268;22631;-48
2022/09/24 22:47:55;;;;;;;18.00;10.40;;;22.40;71.30;;;;;;219940;1268;228938;-48
2022/09/24 22:53:01;;;;;;;17.50;10.30;;;22.30;71.20;;;;;;220405;1269;22616;-56
2022/09/24 22:58:10;;;;;;;18.90;10.60;;;22.40;71.10;;;;;;220507;1268;24990;-48
2022/09/24 23:03:29;;;;;;;15.30;10.00;;;22.40;70.90;;;;;;220247;1268;25429;-51
2022/09/24 23:08:37;;;;;;;17.30;10.40;;;22.30;70.80;;;;;;220241;1268;22541;-50
2022/09/24 23:13:43;;;;;;;16.10;10.40;;;22.30;70.80;;;;;;220432;1271;22553;-47
2022/09/24 23:18:50;;;;;;;15.80;10.20;;;22.20;70.60;;;;;;220483;1267;22688;-49
2022/09/24 23:23:59;;;;;;;17.00;11.10;;;22.20;70.20;;;;;;220376;1267;24240;-47
2022/09/24 23:29:03;;;;;;;18.90;10.70;;;22.30;70.20;;;;;;220281;1268;24316;-49
2022/09/24 23:34:07;;;;;;;14.80;10.30;;;22.20;70.00;;;;;;220256;1268;22689;-50
2022/09/24 23:39:14;;;;;;;21.30;12.60;;;22.20;69.80;;;;;;220517;1268;22547;-50
2022/09/24 23:44:18;;;;;;;13.80;10.00;;;22.20;69.80;;;;;;220338;1267;22691;-49
2022/09/24 23:49:22;;;;;;;15.30;10.20;;;22.20;69.80;;;;;;220343;1268;22628;-50
2022/09/24 23:54:27;;;;;;;15.80;10.20;;;22.10;70.00;;;;;;219923;1270;22732;-51
2022/09/24 23:59:31;;;;;;;15.20;9.40;;;22.20;69.80;;;;;;221347;1267;22682;-49
